createdAt,value
2018-03-25T00:00:46.682Z,5.50
2018-03-25T00:03:13.770Z,4.70
2018-03-25T00:05:40.910Z,6.17
2018-03-25T00:08:07.998Z,4.27
2018-03-25T00:10:35.132Z,4.70
2018-03-25T00:13:02.256Z,3.77
2018-03-25T00:15:29.368Z,4.60
2018-03-25T00:17:56.448Z,6.73
2018-03-25T00:20:23.566Z,3.60
2018-03-25T00:22:50.666Z,7.30
2018-03-25T00:25:17.764Z,5.13
2018-03-25T00:27:44.880Z,4.87
2018-03-25T00:30:12.756Z,5.57
2018-03-25T00:32:40.618Z,7.50
2018-03-25T00:35:07.767Z,4.17
2018-03-25T00:37:35.050Z,4.23
2018-03-25T00:40:02.933Z,5.20
2018-03-25T00:42:30.940Z,5.53
2018-03-25T00:44:58.021Z,4.00
2018-03-25T00:47:25.153Z,5.03
2018-03-25T00:49:53.002Z,5.80
2018-03-25T00:52:20.203Z,3.93
2018-03-25T00:54:47.296Z,4.23
2018-03-25T00:57:14.394Z,4.20
2018-03-25T00:59:41.491Z,4.10
2018-03-25T01:02:08.760Z,4.33
2018-03-25T01:04:35.863Z,8.10
2018-03-25T01:07:03.721Z,4.50
2018-03-25T01:09:31.635Z,6.90
2018-03-25T01:11:58.727Z,4.60
2018-03-25T01:14:25.833Z,4.87
2018-03-25T01:16:52.923Z,7.67
2018-03-25T01:19:20.025Z,5.17
2018-03-25T01:21:47.110Z,6.70
2018-03-25T01:24:14.235Z,5.17
2018-03-25T01:26:42.287Z,7.30
2018-03-25T01:29:09.444Z,5.40
2018-03-25T01:31:36.587Z,7.20
2018-03-25T01:34:03.667Z,4.40
2018-03-25T01:36:30.862Z,7.80
2018-03-25T01:38:57.965Z,5.43
2018-03-25T01:41:25.134Z,6.37
2018-03-25T01:43:52.243Z,3.93
2018-03-25T01:46:19.315Z,4.30
2018-03-25T01:48:46.421Z,8.77
2018-03-25T01:51:13.565Z,4.47
2018-03-25T01:53:40.767Z,5.00
2018-03-25T01:56:07.856Z,5.77
2018-03-25T01:58:34.982Z,3.73
2018-03-25T02:01:02.107Z,5.10
2018-03-25T02:03:29.665Z,4.67
2018-03-25T02:05:57.937Z,4.53
2018-03-25T02:08:25.086Z,5.67
2018-03-25T02:10:52.173Z,5.07
2018-03-25T02:13:19.283Z,5.67
2018-03-25T02:15:46.384Z,3.90
2018-03-25T02:18:13.282Z,6.43
2018-03-25T02:20:40.394Z,4.67
2018-03-25T02:23:07.471Z,4.40
2018-03-25T02:25:34.581Z,4.10
2018-03-25T02:28:01.673Z,5.37
2018-03-25T02:30:28.771Z,5.30
2018-03-25T02:32:55.864Z,5.30
2018-03-25T02:35:22.955Z,4.73
2018-03-25T02:37:50.794Z,4.50
2018-03-25T02:40:17.859Z,4.50
2018-03-25T02:42:45.712Z,5.00
2018-03-25T02:45:12.818Z,4.87
2018-03-25T02:47:39.947Z,4.90
2018-03-25T02:50:07.030Z,4.90
2018-03-25T02:52:34.257Z,4.90
2018-03-25T02:55:01.359Z,5.63
2018-03-25T02:57:28.462Z,5.87
2018-03-25T02:59:55.550Z,5.83
2018-03-25T03:02:23.434Z,4.60
2018-03-25T03:04:50.557Z,4.43
2018-03-25T03:07:17.661Z,5.83
2018-03-25T03:09:45.539Z,4.40
2018-03-25T03:12:13.667Z,5.03
2018-03-25T03:14:40.768Z,4.97
2018-03-25T03:17:07.899Z,4.53
2018-03-25T03:19:35.002Z,5.13
2018-03-25T03:22:02.867Z,5.63
2018-03-25T03:24:30.769Z,4.20
2018-03-25T03:26:57.891Z,4.43
2018-03-25T03:29:25.749Z,5.80
2018-03-25T03:31:53.638Z,5.80
2018-03-25T03:34:20.725Z,5.77
2018-03-25T03:36:47.845Z,5.10
2018-03-25T03:39:15.088Z,4.43
2018-03-25T03:41:42.257Z,4.50
2018-03-25T03:44:09.347Z,4.57
2018-03-25T03:46:36.453Z,4.77
2018-03-25T03:49:03.595Z,4.50
2018-03-25T03:51:30.690Z,5.03
2018-03-25T03:53:58.608Z,4.93
2018-03-25T03:56:26.460Z,5.30
2018-03-25T03:58:53.571Z,4.37
2018-03-25T04:01:20.715Z,4.77
2018-03-25T04:03:47.808Z,5.33
2018-03-25T04:06:15.110Z,4.50
2018-03-25T04:08:42.246Z,4.13
2018-03-25T04:11:09.337Z,6.37
2018-03-25T04:13:36.421Z,3.77
2018-03-25T04:16:04.449Z,4.43
2018-03-25T04:18:31.528Z,4.37
2018-03-25T04:20:58.673Z,5.87
2018-03-25T04:23:25.758Z,4.50
2018-03-25T04:25:53.593Z,4.90
2018-03-25T04:28:20.664Z,4.83
2018-03-25T04:30:47.757Z,4.80
2018-03-25T04:33:14.846Z,5.17
2018-03-25T04:35:41.936Z,5.07
2018-03-25T04:38:09.024Z,4.63
2018-03-25T04:40:36.928Z,5.70
2018-03-25T04:43:04.012Z,5.47
2018-03-25T04:45:31.088Z,4.37
2018-03-25T04:47:58.916Z,5.53
2018-03-25T04:50:25.974Z,5.27
2018-03-25T04:52:53.068Z,5.50
2018-03-25T04:55:20.148Z,4.57
2018-03-25T04:57:48.038Z,4.83
2018-03-25T05:00:15.128Z,4.83
2018-03-25T05:02:42.270Z,5.17
2018-03-25T05:05:09.658Z,4.67
2018-03-25T05:07:36.794Z,4.50
2018-03-25T05:10:03.898Z,6.00
2018-03-25T05:12:31.750Z,4.40
2018-03-25T05:14:58.876Z,6.57
2018-03-25T05:17:25.983Z,4.63
2018-03-25T05:19:53.222Z,4.47
2018-03-25T05:22:20.320Z,5.60
2018-03-25T05:24:47.518Z,4.17
2018-03-25T05:27:15.411Z,5.10
2018-03-25T05:29:42.494Z,6.03
2018-03-25T05:32:09.602Z,4.57
2018-03-25T05:34:36.805Z,4.77
2018-03-25T05:37:04.067Z,4.23
2018-03-25T05:39:31.964Z,5.50
2018-03-25T05:41:59.075Z,4.70
2018-03-25T05:44:26.153Z,6.07
2018-03-25T05:46:53.308Z,6.50
2018-03-25T05:49:20.416Z,5.17
2018-03-25T05:51:47.817Z,4.57
2018-03-25T05:54:14.919Z,5.33
2018-03-25T05:56:41.972Z,4.37
2018-03-25T05:59:09.846Z,5.17
2018-03-25T06:01:37.719Z,5.00
2018-03-25T06:04:05.084Z,7.03
2018-03-25T06:06:32.183Z,4.13
2018-03-25T06:08:59.262Z,5.30
2018-03-25T06:11:26.391Z,7.00
2018-03-25T06:13:54.332Z,4.83
2018-03-25T06:16:21.412Z,5.27
2018-03-25T06:18:48.577Z,5.20
2018-03-25T06:21:16.429Z,6.70
2018-03-25T06:23:43.529Z,5.87
2018-03-25T06:26:10.643Z,5.93
2018-03-25T06:28:38.545Z,5.43
2018-03-25T06:31:05.697Z,5.17
2018-03-25T06:33:32.848Z,5.97
2018-03-25T06:36:01.020Z,8.27
2018-03-25T06:38:28.125Z,4.23
2018-03-25T06:40:55.230Z,6.07
2018-03-25T06:43:22.331Z,5.47
2018-03-25T06:45:49.441Z,5.27
2018-03-25T06:48:16.527Z,5.77
2018-03-25T06:50:43.631Z,6.30
2018-03-25T06:53:10.761Z,5.63
2018-03-25T06:55:37.875Z,5.97
2018-03-25T06:58:04.973Z,6.47
2018-03-25T07:00:32.091Z,6.27
2018-03-25T07:02:59.175Z,6.63
2018-03-25T07:05:26.309Z,5.33
2018-03-25T07:07:53.401Z,7.47
2018-03-25T07:10:20.520Z,4.83
2018-03-25T07:12:47.674Z,5.40
2018-03-25T07:15:14.833Z,6.57
2018-03-25T07:17:42.734Z,7.00
2018-03-25T07:20:09.829Z,6.07
2018-03-25T07:22:36.936Z,4.90
2018-03-25T07:25:04.039Z,5.00
2018-03-25T07:27:31.962Z,5.87
2018-03-25T07:29:59.093Z,6.83
2018-03-25T07:32:26.387Z,5.60
2018-03-25T07:34:53.498Z,7.73
2018-03-25T07:37:21.345Z,6.00
2018-03-25T07:39:48.607Z,5.30
2018-03-25T07:42:16.579Z,5.50
2018-03-25T07:44:44.447Z,6.77
2018-03-25T07:47:11.537Z,6.20
2018-03-25T07:49:38.640Z,5.27
2018-03-25T07:52:06.505Z,5.53
2018-03-25T07:54:33.612Z,5.73
2018-03-25T07:57:00.781Z,6.67
2018-03-25T07:59:27.894Z,7.70
2018-03-25T08:01:55.754Z,6.60
2018-03-25T08:04:23.660Z,7.20
2018-03-25T08:06:51.010Z,11.43
2018-03-25T08:09:18.150Z,10.07
2018-03-25T08:11:45.268Z,9.60
2018-03-25T08:14:13.179Z,10.67
2018-03-25T08:16:40.288Z,11.33
2018-03-25T08:19:07.374Z,11.10
2018-03-25T08:21:34.477Z,13.70
2018-03-25T08:24:02.509Z,11.93
2018-03-25T08:26:29.854Z,11.57
2018-03-25T08:28:57.748Z,10.83
2018-03-25T08:31:24.836Z,8.07
2018-03-25T08:33:51.969Z,9.13
2018-03-25T08:36:19.233Z,11.17
2018-03-25T08:38:46.318Z,15.03
2018-03-25T08:41:13.478Z,11.50
2018-03-25T08:43:40.568Z,9.47
2018-03-25T08:46:08.272Z,11.40
2018-03-25T08:48:35.428Z,10.87
2018-03-25T08:51:02.557Z,9.33
2018-03-25T08:53:29.664Z,11.97
2018-03-25T08:55:57.030Z,13.23
2018-03-25T08:58:24.129Z,9.43
2018-03-25T09:00:52.195Z,15.43
2018-03-25T09:03:20.112Z,9.67
2018-03-25T09:05:47.871Z,12.47
2018-03-25T09:08:14.970Z,11.17
2018-03-25T09:10:42.882Z,12.20
2018-03-25T09:13:10.084Z,13.50
2018-03-25T09:15:37.281Z,12.83
2018-03-25T09:18:04.441Z,15.27
2018-03-25T09:20:31.576Z,16.83
2018-03-25T09:22:58.981Z,10.83
2018-03-25T09:25:26.286Z,15.83
2018-03-25T09:27:53.388Z,10.63
2018-03-25T09:30:21.288Z,19.90
2018-03-25T09:32:48.404Z,15.20
2018-03-25T09:35:16.308Z,17.10
2018-03-25T09:37:43.570Z,15.93
2018-03-25T09:40:10.725Z,19.30
2018-03-25T09:42:37.828Z,14.07
2018-03-25T09:45:05.736Z,15.57
2018-03-25T09:47:33.591Z,14.20
2018-03-25T09:50:02.227Z,16.60
2018-03-25T09:52:29.318Z,13.60
2018-03-25T09:54:56.435Z,13.43
2018-03-25T09:57:23.540Z,13.17
2018-03-25T09:59:50.957Z,20.97
2018-03-25T10:02:21.482Z,11.53
2018-03-25T10:04:48.660Z,14.70
2018-03-25T10:07:15.896Z,18.93
2018-03-25T10:09:43.763Z,19.90
2018-03-25T10:12:11.647Z,15.70
2018-03-25T10:14:38.819Z,12.60
2018-03-25T10:17:05.933Z,12.47
2018-03-25T10:19:33.017Z,11.73
2018-03-25T10:22:02.048Z,13.47
2018-03-25T10:24:29.491Z,10.50
2018-03-25T10:26:56.645Z,12.33
2018-03-25T10:29:23.769Z,14.87
2018-03-25T10:31:50.877Z,16.93
2018-03-25T10:34:18.048Z,18.73
2018-03-25T10:36:45.909Z,17.73
2018-03-25T10:39:13.923Z,12.23
2018-03-25T10:41:41.065Z,19.23
2018-03-25T10:44:08.276Z,15.93
2018-03-25T10:46:36.132Z,18.03
2018-03-25T10:49:03.277Z,17.67
2018-03-25T10:51:30.397Z,17.27
2018-03-25T10:53:57.652Z,12.00
2018-03-25T10:56:24.749Z,10.37
2018-03-25T10:58:52.668Z,17.07
2018-03-25T11:01:19.771Z,11.73
2018-03-25T11:03:47.683Z,8.63
2018-03-25T11:06:15.589Z,12.27
2018-03-25T11:08:42.707Z,11.57
2018-03-25T11:11:10.621Z,11.03
2018-03-25T11:13:37.769Z,9.57
2018-03-25T11:16:04.891Z,11.93
2018-03-25T11:18:31.995Z,10.13
2018-03-25T11:20:59.125Z,15.40
2018-03-25T11:23:26.223Z,13.20
2018-03-25T11:25:53.320Z,8.40
2018-03-25T11:28:20.512Z,13.87
2018-03-25T11:30:47.673Z,15.23
2018-03-25T11:33:14.813Z,11.27
2018-03-25T11:35:41.964Z,16.77
2018-03-25T11:38:09.128Z,11.13
2018-03-25T11:40:36.411Z,6.90
2018-03-25T11:43:03.618Z,11.80
2018-03-25T11:45:30.719Z,8.23
2018-03-25T11:47:57.932Z,9.57
2018-03-25T11:50:25.079Z,11.23
2018-03-25T11:52:52.180Z,9.00
2018-03-25T11:55:20.092Z,10.60
2018-03-25T11:57:47.245Z,11.53
2018-03-25T12:00:14.402Z,9.43
2018-03-25T12:02:41.544Z,10.47
2018-03-25T12:05:08.699Z,8.80
2018-03-25T12:07:35.810Z,10.60
2018-03-25T12:10:02.902Z,10.30
2018-03-25T12:12:30.134Z,9.70
2018-03-25T12:14:57.326Z,7.47
2018-03-25T12:17:24.592Z,7.83
2018-03-25T12:19:53.242Z,7.93
2018-03-25T12:22:20.336Z,8.27
2018-03-25T12:24:47.542Z,8.10
2018-03-25T12:27:14.435Z,12.30
2018-03-25T12:29:41.540Z,7.73
2018-03-25T12:32:08.628Z,8.33
2018-03-25T12:34:35.749Z,7.53
2018-03-25T12:37:02.924Z,8.30
2018-03-25T12:39:30.804Z,8.37
2018-03-25T12:41:57.911Z,8.23
2018-03-25T12:44:25.838Z,7.60
2018-03-25T12:46:53.449Z,10.13
2018-03-25T12:49:20.670Z,8.43
2018-03-25T12:51:47.920Z,8.87
2018-03-25T12:54:15.059Z,7.43
2018-03-25T12:56:42.164Z,8.90
2018-03-25T12:59:09.319Z,8.67
2018-03-25T13:01:37.652Z,8.07
2018-03-25T13:04:04.932Z,11.53
2018-03-25T13:06:32.050Z,8.43
2018-03-25T13:08:59.146Z,8.87
2018-03-25T13:11:27.035Z,9.53
2018-03-25T13:13:54.127Z,7.20
2018-03-25T13:16:22.035Z,8.17
2018-03-25T13:18:49.146Z,8.23
2018-03-25T13:21:17.149Z,6.53
2018-03-25T13:23:44.256Z,7.57
2018-03-25T13:26:11.362Z,9.30
2018-03-25T13:28:38.480Z,7.83
2018-03-25T13:31:05.621Z,6.73
2018-03-25T13:33:32.740Z,6.10
2018-03-25T13:35:59.819Z,8.43
2018-03-25T13:38:26.935Z,7.10
2018-03-25T13:40:54.046Z,9.63
2018-03-25T13:43:21.965Z,10.50
2018-03-25T13:45:49.059Z,7.00
2018-03-25T13:48:16.240Z,5.67
2018-03-25T13:50:43.333Z,7.27
2018-03-25T13:53:10.533Z,7.27
2018-03-25T13:55:37.626Z,9.47
2018-03-25T13:58:06.559Z,5.97
2018-03-25T14:00:33.681Z,8.30
2018-03-25T14:03:00.793Z,7.60
2018-03-25T14:05:27.889Z,6.27
2018-03-25T14:07:55.788Z,5.93
2018-03-25T14:10:22.886Z,7.30
2018-03-25T14:12:49.976Z,6.33
2018-03-25T14:15:17.087Z,11.87
2018-03-25T14:17:44.937Z,7.30
2018-03-25T14:20:12.141Z,8.37
2018-03-25T14:22:39.297Z,5.77
2018-03-25T14:25:06.396Z,10.07
2018-03-25T14:27:33.357Z,6.10
2018-03-25T14:30:00.474Z,7.77
2018-03-25T14:32:27.760Z,8.37
2018-03-25T14:34:54.942Z,7.10
2018-03-25T14:37:22.990Z,10.37
2018-03-25T14:39:50.096Z,7.17
2018-03-25T14:42:17.989Z,8.53
2018-03-25T14:44:45.097Z,7.67
2018-03-25T14:47:12.940Z,13.47
2018-03-25T14:49:40.035Z,7.10
2018-03-25T14:52:07.140Z,10.80
2018-03-25T14:54:35.020Z,11.53
2018-03-25T14:57:02.931Z,7.77
2018-03-25T14:59:30.063Z,10.77
2018-03-25T15:01:57.230Z,10.73
2018-03-25T15:04:24.442Z,11.87
2018-03-25T15:06:51.579Z,9.40
2018-03-25T15:09:18.725Z,14.43
2018-03-25T15:11:45.981Z,8.73
2018-03-25T15:14:13.096Z,10.77
2018-03-25T15:16:40.237Z,13.33
2018-03-25T15:19:07.381Z,11.73
2018-03-25T15:21:34.458Z,12.80
2018-03-25T15:24:01.683Z,9.37
2018-03-25T15:26:28.777Z,14.90
2018-03-25T15:28:55.888Z,9.03
2018-03-25T15:31:23.098Z,21.47
2018-03-25T15:33:51.274Z,13.77
2018-03-25T15:36:19.180Z,10.87
2018-03-25T15:38:46.299Z,14.57
2018-03-25T15:41:14.196Z,15.43
2018-03-25T15:43:41.348Z,17.93
2018-03-25T15:46:08.459Z,7.90
2018-03-25T15:48:35.566Z,6.77
2018-03-25T15:51:02.721Z,8.73
2018-03-25T15:53:29.959Z,9.20
2018-03-25T15:55:57.414Z,8.90
2018-03-25T15:58:25.275Z,7.10
2018-03-25T16:00:52.380Z,11.73
2018-03-25T16:03:20.287Z,7.60
2018-03-25T16:05:47.384Z,8.50
2018-03-25T16:08:14.514Z,8.20
2018-03-25T16:10:41.721Z,7.10
2018-03-25T16:13:08.996Z,11.23
2018-03-25T16:15:36.107Z,11.40
2018-03-25T16:18:04.111Z,16.43
2018-03-25T16:20:31.285Z,9.50
2018-03-25T16:22:58.391Z,10.87
2018-03-25T16:25:25.619Z,11.03
2018-03-25T16:27:52.920Z,6.77
2018-03-25T16:30:20.766Z,11.73
2018-03-25T16:32:48.623Z,17.50
2018-03-25T16:35:15.837Z,10.40
2018-03-25T16:37:42.893Z,7.30
2018-03-25T16:40:10.020Z,12.33
2018-03-25T16:42:37.315Z,6.40
2018-03-25T16:45:07.285Z,9.37
2018-03-25T16:47:34.417Z,12.27
2018-03-25T16:50:01.693Z,7.43
2018-03-25T16:52:28.820Z,5.80
2018-03-25T16:54:55.954Z,7.83
2018-03-25T16:57:24.064Z,6.10
2018-03-25T16:59:51.934Z,5.90
2018-03-25T17:02:19.604Z,11.83
2018-03-25T17:04:47.578Z,12.13
2018-03-25T17:07:14.851Z,8.77
2018-03-25T17:09:41.925Z,13.97
2018-03-25T17:12:09.061Z,41.83
2018-03-25T17:14:38.782Z,18.87
2018-03-25T17:17:05.991Z,16.50
2018-03-25T17:19:33.110Z,19.50
2018-03-25T17:22:00.210Z,14.13
2018-03-25T17:24:27.291Z,12.53
2018-03-25T17:26:55.209Z,10.27
2018-03-25T17:29:22.322Z,13.67
2018-03-25T17:31:50.219Z,18.70
2018-03-25T17:34:17.476Z,18.80
2018-03-25T17:36:45.323Z,15.57
2018-03-25T17:39:12.423Z,13.53
2018-03-25T17:41:39.528Z,9.97
2018-03-25T17:44:07.412Z,11.17
2018-03-25T17:46:34.510Z,14.17
2018-03-25T17:49:01.591Z,10.80
2018-03-25T17:51:28.718Z,10.07
2018-03-25T17:53:55.861Z,17.20
2018-03-25T17:56:23.064Z,10.93
2018-03-25T17:58:50.214Z,11.00
2018-03-25T18:01:17.322Z,9.50
2018-03-25T18:03:44.525Z,21.73
2018-03-25T18:06:13.189Z,10.27
2018-03-25T18:08:40.327Z,7.53
2018-03-25T18:11:07.482Z,13.03
2018-03-25T18:13:34.602Z,16.10
2018-03-25T18:16:02.511Z,14.27
2018-03-25T18:18:29.622Z,17.27
2018-03-25T18:20:56.724Z,18.47
2018-03-25T18:23:23.840Z,29.40
2018-03-25T18:25:51.754Z,31.03
2018-03-25T18:28:19.761Z,28.30
2018-03-25T18:30:46.887Z,29.60
2018-03-25T18:33:14.022Z,28.83
2018-03-25T18:35:41.301Z,29.53
2018-03-25T18:38:08.436Z,27.33
2018-03-25T18:40:35.535Z,27.00
2018-03-25T18:43:02.660Z,29.23
2018-03-25T18:45:30.552Z,26.37
2018-03-25T18:47:57.717Z,23.90
2018-03-25T18:50:24.843Z,21.80
2018-03-25T18:52:51.921Z,22.07
2018-03-25T18:55:19.097Z,26.77
2018-03-25T18:57:46.447Z,32.13
2018-03-25T19:00:14.350Z,18.47
2018-03-25T19:02:41.501Z,22.23
2018-03-25T19:05:08.655Z,18.13
2018-03-25T19:07:35.957Z,13.83
2018-03-25T19:10:03.149Z,11.73
2018-03-25T19:12:30.376Z,15.73
2018-03-25T19:14:57.496Z,12.27
2018-03-25T19:17:24.656Z,17.50
2018-03-25T19:19:51.827Z,21.30
2018-03-25T19:22:19.054Z,10.97
2018-03-25T19:24:46.268Z,10.63
2018-03-25T19:27:14.167Z,12.33
2018-03-25T19:29:41.256Z,13.40
2018-03-25T19:32:09.155Z,11.67
2018-03-25T19:34:36.437Z,11.17
2018-03-25T19:37:03.563Z,18.83
2018-03-25T19:39:31.430Z,7.50
2018-03-25T19:41:59.335Z,12.90
2018-03-25T19:44:28.224Z,9.70
2018-03-25T19:46:56.122Z,14.80
2018-03-25T19:49:23.136Z,11.43
2018-03-25T19:51:51.100Z,10.77
2018-03-25T19:54:18.973Z,14.90
2018-03-25T19:56:46.178Z,15.13
2018-03-25T19:59:13.310Z,13.47
2018-03-25T20:01:40.451Z,13.57
2018-03-25T20:04:08.447Z,11.63
2018-03-25T20:06:35.538Z,13.40
2018-03-25T20:09:02.464Z,11.73
2018-03-25T20:11:30.501Z,8.43
2018-03-25T20:13:57.614Z,11.63
2018-03-25T20:16:24.694Z,9.93
2018-03-25T20:18:51.894Z,8.07
2018-03-25T20:21:19.044Z,10.10
2018-03-25T20:23:46.136Z,7.93
2018-03-25T20:26:14.234Z,8.97
2018-03-25T20:28:41.371Z,7.77
2018-03-25T20:31:08.670Z,11.00
2018-03-25T20:33:35.778Z,13.83
2018-03-25T20:36:04.462Z,8.57
2018-03-25T20:38:31.725Z,10.40
2018-03-25T20:40:58.924Z,7.93
2018-03-25T20:43:26.074Z,6.50
2018-03-25T20:45:53.980Z,9.80
2018-03-25T20:48:21.860Z,10.80
2018-03-25T20:50:49.722Z,9.77
2018-03-25T20:53:17.096Z,17.07
2018-03-25T20:55:44.188Z,7.73
2018-03-25T20:58:11.319Z,10.40
2018-03-25T21:00:39.172Z,10.67
2018-03-25T21:03:07.752Z,15.63
2018-03-25T21:05:34.849Z,14.77
2018-03-25T21:08:01.996Z,9.30
2018-03-25T21:10:29.141Z,15.40
2018-03-25T21:12:56.234Z,11.67
2018-03-25T21:15:23.547Z,10.77
2018-03-25T21:17:50.696Z,6.17
2018-03-25T21:20:17.787Z,13.53
2018-03-25T21:22:44.874Z,9.23
2018-03-25T21:25:12.826Z,10.30
2018-03-25T21:27:40.754Z,9.67
2018-03-25T21:30:07.878Z,5.80
2018-03-25T21:32:34.974Z,9.63
2018-03-25T21:35:02.082Z,8.93
2018-03-25T21:37:29.190Z,5.70
2018-03-25T21:39:56.387Z,5.20
2018-03-25T21:42:23.513Z,4.70
2018-03-25T21:44:50.734Z,6.33
2018-03-25T21:47:18.636Z,10.33
2018-03-25T21:49:45.766Z,8.93
2018-03-25T21:52:12.852Z,7.63
2018-03-25T21:54:40.002Z,5.97
2018-03-25T21:57:07.094Z,8.23
2018-03-25T21:59:34.528Z,7.60
2018-03-25T22:02:01.617Z,8.37
2018-03-25T22:04:29.645Z,6.87
2018-03-25T22:06:56.752Z,8.73
2018-03-25T22:09:23.828Z,7.47
2018-03-25T22:11:50.949Z,6.93
2018-03-25T22:14:18.037Z,5.03
2018-03-25T22:16:45.177Z,7.57
2018-03-25T22:19:12.284Z,8.47
2018-03-25T22:21:39.356Z,6.33
2018-03-25T22:24:06.482Z,8.50
2018-03-25T22:26:33.558Z,5.50
2018-03-25T22:29:00.769Z,5.23
2018-03-25T22:31:28.398Z,6.73
2018-03-25T22:33:55.582Z,6.40
2018-03-25T22:36:22.682Z,10.70
2018-03-25T22:38:49.764Z,5.50
2018-03-25T22:41:16.859Z,4.90
2018-03-25T22:43:44.754Z,5.67
2018-03-25T22:46:11.860Z,5.77
2018-03-25T22:48:39.055Z,8.57
2018-03-25T22:51:06.199Z,7.13
2018-03-25T22:53:33.551Z,8.13
2018-03-25T22:56:02.158Z,8.03
2018-03-25T22:58:29.271Z,4.97
2018-03-25T23:00:56.349Z,5.57
2018-03-25T23:03:23.471Z,5.80
2018-03-25T23:05:51.181Z,13.57
2018-03-25T23:08:18.277Z,4.37
2018-03-25T23:10:45.373Z,7.50
2018-03-25T23:13:12.334Z,8.10
2018-03-25T23:15:39.445Z,4.97
2018-03-25T23:18:06.601Z,4.67
2018-03-25T23:20:33.749Z,5.40
2018-03-25T23:23:00.848Z,4.27
2018-03-25T23:25:28.160Z,5.93
2018-03-25T23:27:55.319Z,4.67
2018-03-25T23:30:23.937Z,7.27
2018-03-25T23:32:51.037Z,6.77
2018-03-25T23:35:18.151Z,4.60
2018-03-25T23:37:45.253Z,5.33
2018-03-25T23:40:12.575Z,4.17
2018-03-25T23:42:39.676Z,5.63
2018-03-25T23:45:07.561Z,5.20
2018-03-25T23:47:34.650Z,7.17
2018-03-25T23:50:01.736Z,6.67
2018-03-25T23:52:28.856Z,5.63
2018-03-25T23:54:56.080Z,6.07
2018-03-25T23:57:23.402Z,4.53
2018-03-25T23:59:50.503Z,5.57
